createdAt,value
2018-11-10T00:00:20.806Z,41.13
2018-11-10T00:02:50.215Z,43.70
2018-11-10T00:05:19.240Z,39.17
2018-11-10T00:07:47.443Z,35.13
2018-11-10T00:10:16.416Z,34.77
2018-11-10T00:12:45.018Z,35.53
2018-11-10T00:15:14.324Z,31.10
2018-11-10T00:17:42.472Z,33.67
2018-11-10T00:20:11.471Z,36.00
2018-11-10T00:22:40.696Z,33.67
2018-11-10T00:25:10.482Z,31.07
2018-11-10T00:27:38.770Z,32.70
2018-11-10T00:30:07.580Z,32.70
2018-11-10T00:32:35.806Z,30.53
2018-11-10T00:35:04.003Z,35.37
2018-11-10T00:37:32.444Z,35.97
2018-11-10T00:40:00.605Z,35.07
2018-11-10T00:42:28.903Z,33.97
2018-11-10T00:44:57.043Z,34.33
2018-11-10T00:47:25.485Z,33.10
2018-11-10T00:49:53.625Z,34.47
2018-11-10T00:52:21.946Z,33.93
2018-11-10T00:54:50.204Z,33.83
2018-11-10T00:57:18.437Z,34.07
2018-11-10T00:59:46.879Z,35.43
2018-11-10T01:02:15.014Z,34.37
2018-11-10T01:04:43.219Z,33.97
2018-11-10T01:07:11.401Z,34.93
2018-11-10T01:09:39.955Z,39.77
2018-11-10T01:12:08.115Z,38.50
2018-11-10T01:14:36.524Z,34.17
2018-11-10T01:17:04.662Z,33.67
2018-11-10T01:19:33.154Z,33.33
2018-11-10T01:22:01.632Z,29.43
2018-11-10T01:24:30.187Z,32.30
2018-11-10T01:26:58.461Z,31.57
2018-11-10T01:29:26.619Z,29.43
2018-11-10T01:31:54.839Z,29.47
2018-11-10T01:34:23.421Z,29.03
2018-11-10T01:36:51.542Z,27.53
2018-11-10T01:39:20.071Z,27.00
2018-11-10T01:41:48.259Z,28.70
2018-11-10T01:44:16.710Z,27.03
2018-11-10T01:46:44.872Z,31.23
2018-11-10T01:49:13.676Z,28.33
2018-11-10T01:51:41.826Z,26.97
2018-11-10T01:54:10.340Z,31.87
2018-11-10T01:56:38.797Z,30.87
2018-11-10T01:59:07.002Z,26.07
2018-11-10T02:01:35.154Z,26.10
2018-11-10T02:04:03.355Z,26.90
2018-11-10T02:06:31.886Z,28.03
2018-11-10T02:09:00.367Z,26.20
2018-11-10T02:11:28.523Z,25.57
2018-11-10T02:13:56.662Z,28.07
2018-11-10T02:16:24.836Z,24.53
2018-11-10T02:18:53.406Z,27.73
2018-11-10T02:21:21.847Z,26.80
2018-11-10T02:23:50.012Z,26.13
2018-11-10T02:26:18.419Z,24.27
2018-11-10T02:28:46.583Z,23.53
2018-11-10T02:31:15.012Z,23.77
2018-11-10T02:33:43.503Z,24.97
2018-11-10T02:36:11.692Z,24.63
2018-11-10T02:38:40.217Z,23.83
2018-11-10T02:41:08.561Z,25.53
2018-11-10T02:43:36.686Z,22.83
2018-11-10T02:46:05.232Z,22.30
2018-11-10T02:48:33.418Z,24.03
2018-11-10T02:51:01.916Z,22.00
2018-11-10T02:53:30.073Z,23.30
2018-11-10T02:55:58.514Z,22.83
2018-11-10T02:58:26.703Z,25.33
2018-11-10T03:00:55.183Z,23.47
2018-11-10T03:03:23.367Z,24.43
2018-11-10T03:05:51.815Z,24.50
2018-11-10T03:08:20.287Z,24.73
2018-11-10T03:10:48.628Z,23.13
2018-11-10T03:13:16.858Z,25.63
2018-11-10T03:15:45.014Z,23.70
2018-11-10T03:18:13.174Z,21.80
2018-11-10T03:20:41.418Z,23.23
2018-11-10T03:23:09.660Z,21.20
2018-11-10T03:25:38.096Z,24.10
2018-11-10T03:28:06.847Z,24.77
2018-11-10T03:30:35.304Z,23.23
2018-11-10T03:33:03.459Z,25.30
2018-11-10T03:35:31.879Z,26.43
2018-11-10T03:38:00.071Z,25.40
2018-11-10T03:40:28.478Z,24.73
2018-11-10T03:42:56.616Z,27.60
2018-11-10T03:45:25.166Z,24.63
2018-11-10T03:47:53.277Z,26.30
2018-11-10T03:50:21.448Z,25.73
2018-11-10T03:52:49.956Z,26.47
2018-11-10T03:55:18.102Z,27.13
2018-11-10T03:57:46.573Z,27.77
2018-11-10T04:00:15.614Z,29.70
2018-11-10T04:02:45.732Z,29.27
2018-11-10T04:05:14.865Z,27.33
2018-11-10T04:07:44.333Z,26.10
2018-11-10T04:10:13.099Z,24.27
2018-11-10T04:12:41.706Z,22.37
2018-11-10T04:15:09.886Z,23.10
2018-11-10T04:17:38.550Z,21.23
2018-11-10T04:20:08.057Z,28.37
2018-11-10T04:22:37.236Z,27.47
2018-11-10T04:25:08.686Z,27.13
2018-11-10T04:27:37.196Z,27.13
2018-11-10T04:30:06.054Z,27.87
2018-11-10T04:32:34.982Z,33.93
2018-11-10T04:35:03.500Z,27.13
2018-11-10T04:37:32.120Z,26.60
2018-11-10T04:40:00.554Z,30.37
2018-11-10T04:42:28.713Z,27.03
2018-11-10T04:44:56.872Z,23.10
2018-11-10T04:47:25.276Z,21.70
2018-11-10T04:49:53.639Z,24.83
2018-11-10T04:52:21.908Z,25.27
2018-11-10T04:54:50.365Z,24.30
2018-11-10T04:57:18.521Z,28.33
2018-11-10T04:59:46.736Z,26.93
2018-11-10T05:02:15.171Z,25.33
2018-11-10T05:04:43.334Z,27.27
2018-11-10T05:07:11.792Z,26.13
2018-11-10T05:09:39.953Z,26.57
2018-11-10T05:12:08.407Z,24.37
2018-11-10T05:14:36.832Z,23.30
2018-11-10T05:17:05.743Z,23.80
2018-11-10T05:19:33.925Z,23.47
2018-11-10T05:22:02.118Z,28.07
2018-11-10T05:24:30.583Z,24.97
2018-11-10T05:26:58.738Z,22.67
2018-11-10T05:29:27.166Z,23.23
2018-11-10T05:31:55.609Z,28.37
2018-11-10T05:34:23.778Z,31.30
2018-11-10T05:36:52.325Z,28.67
2018-11-10T05:39:20.495Z,27.47
2018-11-10T05:41:48.645Z,27.40
2018-11-10T05:44:16.781Z,26.77
2018-11-10T05:46:44.967Z,28.47
2018-11-10T05:49:13.371Z,28.63
2018-11-10T05:51:41.894Z,27.73
2018-11-10T05:54:10.295Z,26.67
2018-11-10T05:56:38.476Z,25.00
2018-11-10T05:59:06.626Z,24.80
2018-11-10T06:01:34.799Z,25.30
2018-11-10T06:04:03.324Z,25.03
2018-11-10T06:06:31.528Z,24.97
2018-11-10T06:08:59.960Z,20.40
2018-11-10T06:11:28.619Z,23.23
2018-11-10T06:13:56.755Z,19.30
2018-11-10T06:16:25.171Z,20.77
2018-11-10T06:18:53.438Z,25.00
2018-11-10T06:21:22.045Z,21.57
2018-11-10T06:23:50.208Z,21.10
2018-11-10T06:26:18.392Z,23.77
2018-11-10T06:28:46.564Z,20.13
2018-11-10T06:31:15.026Z,22.17
2018-11-10T06:33:43.617Z,19.33
2018-11-10T06:36:11.809Z,22.20
2018-11-10T06:38:40.261Z,25.60
2018-11-10T06:41:08.668Z,19.43
2018-11-10T06:43:36.985Z,19.03
2018-11-10T06:46:05.151Z,15.73
2018-11-10T06:48:33.295Z,17.30
2018-11-10T06:51:01.457Z,20.13
2018-11-10T06:53:30.011Z,19.07
2018-11-10T06:55:58.476Z,21.50
2018-11-10T06:58:26.606Z,18.80
2018-11-10T07:00:55.145Z,18.53
2018-11-10T07:03:23.332Z,19.40
2018-11-10T07:05:52.000Z,19.73
2018-11-10T07:08:20.150Z,24.00
2018-11-10T07:10:48.344Z,17.97
2018-11-10T07:13:17.655Z,16.63
2018-11-10T07:15:45.862Z,18.43
2018-11-10T07:18:14.482Z,17.97
2018-11-10T07:20:42.722Z,15.67
2018-11-10T07:23:10.862Z,16.73
2018-11-10T07:25:39.058Z,16.90
2018-11-10T07:28:07.198Z,19.37
2018-11-10T07:30:35.420Z,21.97
2018-11-10T07:33:03.650Z,17.43
2018-11-10T07:35:32.119Z,20.47
2018-11-10T07:38:00.311Z,17.30
2018-11-10T07:40:28.545Z,17.67
2018-11-10T07:42:56.723Z,20.23
2018-11-10T07:45:25.331Z,17.97
2018-11-10T07:47:55.515Z,18.90
2018-11-10T07:50:23.651Z,17.37
2018-11-10T07:52:52.135Z,18.83
2018-11-10T07:55:20.561Z,19.00
2018-11-10T07:57:48.758Z,18.23
2018-11-10T08:00:17.828Z,18.07
2018-11-10T08:02:46.016Z,18.10
2018-11-10T08:05:15.064Z,17.63
2018-11-10T08:07:43.817Z,17.93
2018-11-10T08:10:12.928Z,15.53
2018-11-10T08:12:41.507Z,15.13
2018-11-10T08:15:12.467Z,13.87
2018-11-10T08:17:41.259Z,15.20
2018-11-10T08:20:10.475Z,16.30
2018-11-10T08:22:38.635Z,15.10
2018-11-10T08:25:08.904Z,14.27
2018-11-10T08:27:37.299Z,16.07
2018-11-10T08:30:06.399Z,15.73
2018-11-10T08:32:34.863Z,13.97
2018-11-10T08:35:03.475Z,14.37
2018-11-10T08:37:32.057Z,14.50
2018-11-10T08:40:00.544Z,15.50
2018-11-10T08:42:28.656Z,13.90
2018-11-10T08:44:57.124Z,16.40
2018-11-10T08:47:25.294Z,13.87
2018-11-10T08:49:53.430Z,12.13
2018-11-10T08:52:21.577Z,12.17
2018-11-10T08:54:50.023Z,13.83
2018-11-10T08:57:18.572Z,14.07
2018-11-10T08:59:47.560Z,15.07
2018-11-10T09:02:16.171Z,13.33
2018-11-10T09:04:44.349Z,15.03
2018-11-10T09:07:12.530Z,11.80
2018-11-10T09:09:40.857Z,12.73
2018-11-10T09:12:09.948Z,12.40
2018-11-10T09:14:38.362Z,12.27
2018-11-10T09:17:06.922Z,13.03
2018-11-10T09:19:35.419Z,12.90
2018-11-10T09:22:03.577Z,14.40
2018-11-10T09:24:32.078Z,16.23
2018-11-10T09:27:00.253Z,17.63
2018-11-10T09:29:29.123Z,11.90
2018-11-10T09:31:57.292Z,12.97
2018-11-10T09:34:25.464Z,11.77
2018-11-10T09:36:53.590Z,12.43
2018-11-10T09:39:21.762Z,12.50
2018-11-10T09:41:50.363Z,13.57
2018-11-10T09:44:18.642Z,12.67
2018-11-10T09:46:46.802Z,11.53
2018-11-10T09:49:15.576Z,15.47
2018-11-10T09:51:43.814Z,13.43
2018-11-10T09:54:12.330Z,17.23
2018-11-10T09:56:40.783Z,13.23
2018-11-10T09:59:09.255Z,12.73
2018-11-10T10:01:37.525Z,16.00
2018-11-10T10:04:06.317Z,11.70
2018-11-10T10:06:34.776Z,12.23
2018-11-10T10:09:03.828Z,10.70
2018-11-10T10:11:32.065Z,12.00
2018-11-10T10:14:00.350Z,12.57
2018-11-10T10:16:28.677Z,12.87
2018-11-10T10:18:56.957Z,12.43
2018-11-10T10:21:25.456Z,10.47
2018-11-10T10:23:53.646Z,20.27
2018-11-10T10:26:21.815Z,12.07
2018-11-10T10:28:50.345Z,11.87
2018-11-10T10:31:18.621Z,10.20
2018-11-10T10:33:47.119Z,11.23
2018-11-10T10:36:15.318Z,17.47
2018-11-10T10:38:43.471Z,11.80
2018-11-10T10:41:11.659Z,11.37
2018-11-10T10:43:40.185Z,13.77
2018-11-10T10:46:08.375Z,12.67
2018-11-10T10:48:36.845Z,11.63
2018-11-10T10:51:05.683Z,14.70
2018-11-10T10:53:33.839Z,12.20
2018-11-10T10:56:02.498Z,12.07
2018-11-10T10:58:31.382Z,12.17
2018-11-10T11:01:05.544Z,12.00
2018-11-10T11:03:39.310Z,12.90
2018-11-10T11:06:07.562Z,12.63
2018-11-10T11:08:35.928Z,12.70
2018-11-10T11:11:04.485Z,14.40
2018-11-10T11:13:32.766Z,15.83
2018-11-10T11:16:01.238Z,18.40
2018-11-10T11:18:29.551Z,18.97
2018-11-10T11:20:57.783Z,14.37
2018-11-10T11:23:25.991Z,14.97
2018-11-10T11:25:54.442Z,16.37
2018-11-10T11:28:22.592Z,16.93
2018-11-10T11:30:50.740Z,16.73
2018-11-10T11:33:19.008Z,14.30
2018-11-10T11:35:47.426Z,17.37
2018-11-10T11:38:16.040Z,18.67
2018-11-10T11:40:44.208Z,18.17
2018-11-10T11:43:12.464Z,17.67
2018-11-10T11:45:40.605Z,14.40
2018-11-10T11:48:08.823Z,15.43
2018-11-10T11:50:37.035Z,25.50
2018-11-10T11:53:05.671Z,15.20
2018-11-10T11:55:33.806Z,16.60
2018-11-10T11:58:02.413Z,15.73
2018-11-10T12:00:30.890Z,17.73
2018-11-10T12:02:59.101Z,15.50
2018-11-10T12:05:27.236Z,14.13
2018-11-10T12:07:55.926Z,19.73
2018-11-10T12:10:24.100Z,17.37
2018-11-10T12:12:52.578Z,20.80
2018-11-10T12:15:21.126Z,14.80
2018-11-10T12:17:49.767Z,16.60
2018-11-10T12:20:18.205Z,16.13
2018-11-10T12:22:46.835Z,17.07
2018-11-10T12:25:15.511Z,14.33
2018-11-10T12:27:44.205Z,13.80
2018-11-10T12:30:13.064Z,16.33
2018-11-10T12:32:41.701Z,14.77
2018-11-10T12:35:11.550Z,14.10
2018-11-10T12:37:39.654Z,12.83
2018-11-10T12:40:09.486Z,13.00
2018-11-10T12:42:38.834Z,14.43
2018-11-10T12:45:07.414Z,14.27
2018-11-10T12:47:35.866Z,13.03
2018-11-10T12:50:04.918Z,10.67
2018-11-10T12:52:33.053Z,12.53
2018-11-10T12:55:01.269Z,13.50
2018-11-10T12:57:29.813Z,13.37
2018-11-10T12:59:57.986Z,13.10
2018-11-10T13:02:26.435Z,13.97
2018-11-10T13:04:54.895Z,13.27
2018-11-10T13:07:23.431Z,16.63
2018-11-10T13:09:51.874Z,12.97
2018-11-10T13:12:20.378Z,12.73
2018-11-10T13:14:48.804Z,11.83
2018-11-10T13:17:17.294Z,12.87
2018-11-10T13:19:45.906Z,11.87
2018-11-10T13:22:14.345Z,12.90
2018-11-10T13:24:42.780Z,12.27
2018-11-10T13:27:11.317Z,14.47
2018-11-10T13:29:39.957Z,15.07
2018-11-10T13:32:08.375Z,16.53
2018-11-10T13:34:36.896Z,21.27
2018-11-10T13:37:05.598Z,15.60
2018-11-10T13:39:33.798Z,15.13
2018-11-10T13:42:02.248Z,12.80
2018-11-10T13:44:30.724Z,12.53
2018-11-10T13:46:59.073Z,13.47
2018-11-10T13:49:27.510Z,18.60
2018-11-10T13:51:56.031Z,19.90
2018-11-10T13:54:24.034Z,16.30
2018-11-10T13:56:52.169Z,17.97
2018-11-10T13:59:20.408Z,18.10
2018-11-10T14:01:48.765Z,17.57
2018-11-10T14:04:16.976Z,18.87
2018-11-10T14:06:45.256Z,18.60
2018-11-10T14:09:13.460Z,22.00
2018-11-10T14:11:42.369Z,41.27
2018-11-10T14:14:11.058Z,24.67
2018-11-10T14:16:39.870Z,23.47
2018-11-10T14:19:08.433Z,23.83
2018-11-10T14:21:36.809Z,23.23
2018-11-10T14:24:05.399Z,23.90
2018-11-10T14:26:33.560Z,24.97
2018-11-10T14:29:02.011Z,28.80
2018-11-10T14:31:30.279Z,28.30
2018-11-10T14:33:58.415Z,23.77
2018-11-10T14:36:26.920Z,21.70
2018-11-10T14:38:55.186Z,21.13
2018-11-10T14:41:23.434Z,22.30
2018-11-10T14:43:51.907Z,22.93
2018-11-10T14:46:20.321Z,22.03
2018-11-10T14:48:48.477Z,20.80
2018-11-10T14:51:16.635Z,22.73
2018-11-10T14:53:44.778Z,20.77
2018-11-10T14:56:12.955Z,23.10
2018-11-10T14:58:41.205Z,24.90
2018-11-10T15:01:09.507Z,23.20
2018-11-10T15:03:37.658Z,26.47
2018-11-10T15:06:05.852Z,27.77
2018-11-10T15:08:34.010Z,27.83
2018-11-10T15:11:02.218Z,26.03
2018-11-10T15:13:30.701Z,26.23
2018-11-10T15:15:59.163Z,24.70
2018-11-10T15:18:27.682Z,26.40
2018-11-10T15:20:56.345Z,28.17
2018-11-10T15:23:24.807Z,31.60
2018-11-10T15:25:53.286Z,44.73
2018-11-10T15:28:21.714Z,54.07
2018-11-10T15:30:50.146Z,62.73
2018-11-10T15:33:18.562Z,36.17
2018-11-10T15:35:47.012Z,57.37
2018-11-10T15:38:15.454Z,35.87
2018-11-10T15:40:43.899Z,35.67
2018-11-10T15:43:12.378Z,39.93
2018-11-10T15:45:40.832Z,37.47
2018-11-10T15:48:09.284Z,33.90
2018-11-10T15:50:37.844Z,31.97
2018-11-10T15:53:06.426Z,36.00
2018-11-10T15:55:35.073Z,42.43
2018-11-10T15:58:03.461Z,37.87
2018-11-10T16:00:31.903Z,40.20
2018-11-10T16:03:00.390Z,34.87
2018-11-10T16:05:28.944Z,34.40
2018-11-10T16:07:57.422Z,37.17
2018-11-10T16:10:26.193Z,37.63
2018-11-10T16:12:54.967Z,37.27
2018-11-10T16:15:23.522Z,39.37
2018-11-10T16:17:51.963Z,35.17
2018-11-10T16:20:20.854Z,35.30
2018-11-10T16:22:50.529Z,34.87
2018-11-10T16:25:19.294Z,40.20
2018-11-10T16:27:47.822Z,47.50
2018-11-10T16:30:17.733Z,42.40
2018-11-10T16:32:46.391Z,35.67
2018-11-10T16:35:14.875Z,32.30
2018-11-10T16:37:43.274Z,32.87
2018-11-10T16:40:14.142Z,31.40
2018-11-10T16:42:43.621Z,33.23
2018-11-10T16:45:13.202Z,33.97
2018-11-10T16:47:41.917Z,35.70
2018-11-10T16:50:10.899Z,33.50
2018-11-10T16:52:39.871Z,38.87
2018-11-10T16:55:08.678Z,40.00
2018-11-10T16:57:37.547Z,34.37
2018-11-10T17:00:08.849Z,33.50
2018-11-10T17:02:37.279Z,32.13
2018-11-10T17:05:06.474Z,29.10
2018-11-10T17:07:35.069Z,25.87
2018-11-10T17:10:03.550Z,27.43
2018-11-10T17:12:32.008Z,28.20
2018-11-10T17:15:00.418Z,40.40
2018-11-10T17:17:29.006Z,42.00
2018-11-10T17:19:57.497Z,44.23
2018-11-10T17:22:26.104Z,40.97
2018-11-10T17:24:54.820Z,29.83
2018-11-10T17:27:23.276Z,32.43
2018-11-10T17:29:58.425Z,29.23
2018-11-10T17:32:27.041Z,25.17
2018-11-10T17:34:55.548Z,29.90
2018-11-10T17:37:24.061Z,25.13
2018-11-10T17:39:52.725Z,22.90
2018-11-10T17:42:21.327Z,26.33
2018-11-10T17:44:49.846Z,26.30
2018-11-10T17:47:18.352Z,27.03
2018-11-10T17:49:46.795Z,24.73
2018-11-10T17:52:15.338Z,22.60
2018-11-10T17:54:43.960Z,24.30
2018-11-10T17:57:12.494Z,25.30
2018-11-10T17:59:40.927Z,28.90
2018-11-10T18:02:09.568Z,26.37
2018-11-10T18:04:38.176Z,28.83
2018-11-10T18:07:07.193Z,28.73
2018-11-10T18:09:35.694Z,28.13
2018-11-10T18:12:04.330Z,27.73
2018-11-10T18:14:33.004Z,26.07
2018-11-10T18:17:01.573Z,28.87
2018-11-10T18:19:30.191Z,24.83
2018-11-10T18:21:58.621Z,26.70
2018-11-10T18:24:27.839Z,28.23
2018-11-10T18:26:56.341Z,40.20
2018-11-10T18:29:24.822Z,25.90
2018-11-10T18:31:53.299Z,33.83
2018-11-10T18:34:21.787Z,30.07
2018-11-10T18:36:50.272Z,30.73
2018-11-10T18:39:18.788Z,28.80
2018-11-10T18:41:47.640Z,32.17
2018-11-10T18:44:16.092Z,44.20
2018-11-10T18:46:44.756Z,85.93
2018-11-10T18:49:13.840Z,41.23
2018-11-10T18:51:42.387Z,38.17
2018-11-10T18:54:11.027Z,40.10
2018-11-10T18:56:39.641Z,38.87
2018-11-10T18:59:08.207Z,33.03
2018-11-10T19:01:36.671Z,34.10
2018-11-10T19:04:05.292Z,34.00
2018-11-10T19:06:33.755Z,33.57
2018-11-10T19:09:02.229Z,33.87
2018-11-10T19:11:30.823Z,32.90
2018-11-10T19:13:59.238Z,32.13
2018-11-10T19:16:27.687Z,42.17
2018-11-10T19:18:56.102Z,41.73
2018-11-10T19:21:24.747Z,41.67
2018-11-10T19:23:53.200Z,43.37
2018-11-10T19:26:21.693Z,40.63
2018-11-10T19:28:50.086Z,41.87
2018-11-10T19:31:18.607Z,39.27
2018-11-10T19:33:47.059Z,37.47
2018-11-10T19:36:15.523Z,39.30
2018-11-10T19:38:43.984Z,44.67
2018-11-10T19:41:12.713Z,48.70
2018-11-10T19:43:41.147Z,42.53
2018-11-10T19:46:09.642Z,46.97
2018-11-10T19:48:38.116Z,43.50
2018-11-10T19:51:10.933Z,47.97
2018-11-10T19:53:39.905Z,43.90
2018-11-10T19:56:08.876Z,48.33
2018-11-10T19:58:37.360Z,45.83
2018-11-10T20:01:06.056Z,43.07
2018-11-10T20:03:34.524Z,41.00
2018-11-10T20:06:02.942Z,43.97
2018-11-10T20:08:31.406Z,46.57
2018-11-10T20:10:59.831Z,50.53
2018-11-10T20:13:28.339Z,41.97
2018-11-10T20:15:56.768Z,44.67
2018-11-10T20:18:25.249Z,41.10
2018-11-10T20:20:53.719Z,39.83
2018-11-10T20:23:22.175Z,41.90
2018-11-10T20:25:50.717Z,37.00
2018-11-10T20:28:19.170Z,41.10
2018-11-10T20:30:47.678Z,41.27
2018-11-10T20:33:16.118Z,42.23
2018-11-10T20:35:44.584Z,38.73
2018-11-10T20:38:13.040Z,84.13
2018-11-10T20:40:41.517Z,43.10
2018-11-10T20:43:10.099Z,41.63
2018-11-10T20:45:38.587Z,38.77
2018-11-10T20:48:07.068Z,36.73
2018-11-10T20:50:35.510Z,35.17
2018-11-10T20:53:04.000Z,33.97
2018-11-10T20:55:32.453Z,38.13
2018-11-10T20:58:01.087Z,36.70
2018-11-10T21:00:29.559Z,46.87
2018-11-10T21:02:58.216Z,58.13
2018-11-10T21:05:26.692Z,44.90
2018-11-10T21:07:55.214Z,36.53
2018-11-10T21:10:23.714Z,37.80
2018-11-10T21:12:52.402Z,37.03
2018-11-10T21:15:21.410Z,39.73
2018-11-10T21:17:49.960Z,39.87
2018-11-10T21:20:18.837Z,43.77
2018-11-10T21:22:47.454Z,39.23
2018-11-10T21:25:17.205Z,45.07
2018-11-10T21:27:46.003Z,35.80
2018-11-10T21:30:17.852Z,34.47
2018-11-10T21:32:46.977Z,36.20
2018-11-10T21:35:15.884Z,40.83
2018-11-10T21:37:44.446Z,40.63
2018-11-10T21:40:20.534Z,47.13
2018-11-10T21:42:49.041Z,40.97
2018-11-10T21:45:18.070Z,33.60
2018-11-10T21:47:46.867Z,32.23
2018-11-10T21:50:18.778Z,30.77
2018-11-10T21:52:47.332Z,36.93
2018-11-10T21:55:18.052Z,28.43
2018-11-10T21:57:47.239Z,32.57
2018-11-10T22:00:17.294Z,30.27
2018-11-10T22:02:46.031Z,33.63
2018-11-10T22:05:14.806Z,26.17
2018-11-10T22:07:43.241Z,30.47
2018-11-10T22:10:13.280Z,33.67
2018-11-10T22:12:42.028Z,31.23
2018-11-10T22:15:14.210Z,31.27
2018-11-10T22:17:43.636Z,31.37
2018-11-10T22:20:13.676Z,36.47
2018-11-10T22:22:42.187Z,38.57
2018-11-10T22:25:11.623Z,32.37
2018-11-10T22:27:41.370Z,35.20
2018-11-10T22:30:11.542Z,32.27
2018-11-10T22:32:39.982Z,29.00
2018-11-10T22:35:08.910Z,30.40
2018-11-10T22:37:37.440Z,28.43
2018-11-10T22:40:07.180Z,34.07
2018-11-10T22:42:36.424Z,30.83
2018-11-10T22:45:05.424Z,30.30
2018-11-10T22:47:33.875Z,36.20
2018-11-10T22:50:02.391Z,38.30
2018-11-10T22:52:30.897Z,30.27
2018-11-10T22:54:59.351Z,28.63
2018-11-10T22:57:27.859Z,31.17
2018-11-10T22:59:56.347Z,26.77
2018-11-10T23:02:24.902Z,29.57
2018-11-10T23:04:53.480Z,36.10
2018-11-10T23:07:22.100Z,33.23
2018-11-10T23:09:50.526Z,30.40
2018-11-10T23:12:18.990Z,31.30
2018-11-10T23:14:47.422Z,28.80
2018-11-10T23:17:16.047Z,24.57
2018-11-10T23:19:44.651Z,22.83
2018-11-10T23:22:13.052Z,27.13
2018-11-10T23:24:41.468Z,25.77
2018-11-10T23:27:10.162Z,21.10
2018-11-10T23:29:38.681Z,25.43
2018-11-10T23:32:07.257Z,23.87
2018-11-10T23:34:35.704Z,21.60
2018-11-10T23:37:04.220Z,20.23
2018-11-10T23:39:32.697Z,21.27
2018-11-10T23:42:01.108Z,20.97
2018-11-10T23:44:29.658Z,21.03
2018-11-10T23:46:58.077Z,24.07
2018-11-10T23:49:26.530Z,20.93
2018-11-10T23:51:54.978Z,23.67
2018-11-10T23:54:23.638Z,28.33
2018-11-10T23:56:52.164Z,22.40
2018-11-10T23:59:20.638Z,22.50
